createdAt,value
2016-11-23T00:00:46.869Z,12.2
2016-11-23T00:01:46.666Z,12.2
2016-11-23T00:02:47.256Z,12.15
2016-11-23T00:03:46.710Z,12.15
2016-11-23T00:04:46.920Z,12.23
2016-11-23T00:05:47.327Z,12.15
2016-11-23T00:06:46.666Z,12.13
2016-11-23T00:07:46.222Z,12.02
2016-11-23T00:08:46.250Z,12.2
2016-11-23T00:09:47.266Z,12.12
2016-11-23T00:10:46.501Z,12.06
2016-11-23T00:11:46.536Z,11.98
2016-11-23T00:12:46.573Z,12.03
2016-11-23T00:13:46.782Z,12.06
2016-11-23T00:14:47.156Z,12.09
2016-11-23T00:15:47.122Z,11.99
2016-11-23T00:16:47.126Z,12.06
2016-11-23T00:17:47.070Z,11.91
2016-11-23T00:18:45.931Z,11.98
2016-11-23T00:19:46.454Z,11.79
2016-11-23T00:20:47.035Z,11.75
2016-11-23T00:21:46.902Z,11.73
2016-11-23T00:22:45.703Z,11.57
2016-11-23T00:23:46.162Z,11.56
2016-11-23T00:24:46.329Z,11.56
2016-11-23T00:25:46.543Z,11.58
2016-11-23T00:26:46.201Z,11.71
2016-11-23T00:27:46.891Z,11.81
2016-11-23T00:28:46.236Z,11.87
2016-11-23T00:29:46.883Z,11.89
2016-11-23T00:30:46.423Z,11.94
2016-11-23T00:31:46.412Z,11.94
2016-11-23T00:32:46.411Z,11.94
2016-11-23T00:33:45.972Z,11.98
2016-11-23T00:34:46.384Z,11.99
2016-11-23T00:35:46.351Z,12.05
2016-11-23T00:36:45.913Z,12.03
2016-11-23T00:37:45.914Z,12.03
2016-11-23T00:38:45.626Z,12.03
2016-11-23T00:39:45.300Z,11.99
2016-11-23T00:40:46.523Z,11.98
2016-11-23T00:41:45.573Z,12.05
2016-11-23T00:42:46.612Z,11.95
2016-11-23T00:43:45.772Z,11.97
2016-11-23T00:44:46.023Z,11.94
2016-11-23T00:45:45.494Z,11.91
2016-11-23T00:46:45.899Z,11.91
2016-11-23T00:47:45.892Z,11.97
2016-11-23T00:48:46.361Z,11.94
2016-11-23T00:49:46.073Z,11.97
2016-11-23T00:50:46.049Z,12.05
2016-11-23T00:51:45.653Z,11.98
2016-11-23T00:52:45.653Z,12.02
2016-11-23T00:53:46.413Z,12.07
2016-11-23T00:54:45.728Z,12.03
2016-11-23T00:55:46.235Z,12.1
2016-11-23T00:56:45.309Z,12.02
2016-11-23T00:57:45.692Z,12.09
2016-11-23T00:58:46.307Z,12.1
2016-11-23T00:59:45.243Z,12.05
2016-11-23T01:00:44.973Z,12.12
2016-11-23T01:01:46.264Z,12.1
2016-11-23T01:02:45.188Z,12.13
2016-11-23T01:03:46.213Z,12.13
2016-11-23T01:04:45.144Z,12.07
2016-11-23T01:05:45.541Z,12.02
2016-11-23T01:06:45.770Z,11.98
2016-11-23T01:07:46.139Z,12.1
2016-11-23T01:08:45.464Z,12.02
2016-11-23T01:09:45.697Z,11.99
2016-11-23T01:10:45.531Z,12.05
2016-11-23T01:11:45.441Z,12.02
2016-11-23T01:12:44.973Z,12.07
2016-11-23T01:13:44.993Z,12.05
2016-11-23T01:14:45.271Z,12.09
2016-11-23T01:15:45.275Z,12.03
2016-11-23T01:16:45.988Z,12.05
2016-11-23T01:17:45.554Z,12.02
2016-11-23T01:18:45.375Z,12.13
2016-11-23T01:19:45.508Z,12.15
2016-11-23T01:20:44.849Z,12.07
2016-11-23T01:21:45.074Z,12.1
2016-11-23T01:22:45.870Z,12.15
2016-11-23T01:23:45.115Z,12.15
2016-11-23T01:24:45.003Z,12.16
2016-11-23T01:25:44.761Z,12.15
2016-11-23T01:26:44.487Z,12.13
2016-11-23T01:27:45.117Z,12.17
2016-11-23T01:28:45.740Z,12.21
2016-11-23T01:29:45.705Z,12.21
2016-11-23T01:30:45.084Z,12.16
2016-11-23T01:31:44.671Z,12.15
2016-11-23T01:32:45.254Z,12.24
2016-11-23T01:33:45.244Z,12.21
2016-11-23T01:34:45.006Z,12.17
2016-11-23T01:35:45.608Z,12.17
2016-11-23T01:36:44.937Z,12.03
2016-11-23T01:37:45.179Z,12.02
2016-11-23T01:38:44.905Z,11.87
2016-11-23T01:39:44.475Z,11.94
2016-11-23T01:40:44.704Z,11.91
2016-11-23T01:41:44.236Z,11.86
2016-11-23T01:42:44.475Z,11.86
2016-11-23T01:43:45.467Z,11.86
2016-11-23T01:44:45.102Z,11.95
2016-11-23T01:45:45.423Z,11.97
2016-11-23T01:46:44.782Z,11.97
2016-11-23T01:47:44.315Z,11.99
2016-11-23T01:48:44.755Z,12.02
2016-11-23T01:49:44.946Z,12.03
2016-11-23T01:50:44.925Z,12.05
2016-11-23T01:51:45.324Z,12.02
2016-11-23T01:52:44.243Z,11.98
2016-11-23T01:53:44.763Z,12.02
2016-11-23T01:54:44.606Z,12.06
2016-11-23T01:55:44.164Z,11.98
2016-11-23T01:56:45.035Z,12.03
2016-11-23T01:57:45.075Z,12.09
2016-11-23T01:58:44.354Z,12.07
2016-11-23T01:59:44.755Z,12.02
2016-11-23T02:00:45.151Z,12.05
2016-11-23T02:01:44.995Z,12.07
2016-11-23T02:02:44.042Z,12.02
2016-11-23T02:03:44.022Z,12.16
2016-11-23T02:04:44.415Z,12.03
2016-11-23T02:05:45.071Z,12.05
2016-11-23T02:06:44.616Z,12.06
2016-11-23T02:07:44.591Z,12.16
2016-11-23T02:08:44.364Z,12.1
2016-11-23T02:09:44.328Z,12.13
2016-11-23T02:10:44.525Z,12.15
2016-11-23T02:11:44.936Z,12.12
2016-11-23T02:12:44.296Z,12.13
2016-11-23T02:13:44.896Z,12.15
2016-11-23T02:14:44.005Z,12.17
2016-11-23T02:15:43.577Z,12.24
2016-11-23T02:16:44.056Z,12.21
2016-11-23T02:17:43.995Z,12.17
2016-11-23T02:18:44.160Z,12.23
2016-11-23T02:19:44.076Z,12.21
2016-11-23T02:20:44.358Z,12.24
2016-11-23T02:21:44.585Z,12.23
2016-11-23T02:22:43.998Z,12.07
2016-11-23T02:23:44.285Z,12.07
2016-11-23T02:24:44.062Z,12.05
2016-11-23T02:25:44.685Z,12.2
2016-11-23T02:26:44.085Z,12.15
2016-11-23T02:27:43.580Z,12.2
2016-11-23T02:28:44.610Z,12.17
2016-11-23T02:29:43.782Z,12.21
2016-11-23T02:30:44.169Z,12.16
2016-11-23T02:31:43.429Z,12.21
2016-11-23T02:32:43.481Z,12.17
2016-11-23T02:33:43.778Z,12.21
2016-11-23T02:34:43.675Z,12.21
2016-11-23T02:35:44.506Z,12.13
2016-11-23T02:36:44.320Z,12.16
2016-11-23T02:37:43.787Z,12.16
2016-11-23T02:38:44.425Z,12.13
2016-11-23T02:39:44.386Z,12.17
2016-11-23T02:40:43.970Z,12.15
2016-11-23T02:41:43.970Z,12.16
2016-11-23T02:42:43.521Z,12.16
2016-11-23T02:43:44.084Z,12.07
2016-11-23T02:44:44.385Z,12.12
2016-11-23T02:45:44.284Z,12.12
2016-11-23T02:46:43.476Z,12.12
2016-11-23T02:47:44.265Z,12.13
2016-11-23T02:48:43.584Z,12.1
2016-11-23T02:49:43.683Z,12.05
2016-11-23T02:50:44.080Z,12.02
2016-11-23T02:51:43.490Z,12.05
2016-11-23T02:52:43.332Z,12.03
2016-11-23T02:53:44.165Z,12.05
2016-11-23T02:54:44.133Z,11.99
2016-11-23T02:55:43.045Z,12.07
2016-11-23T02:56:43.023Z,11.99
2016-11-23T02:57:43.416Z,11.99
2016-11-23T02:58:42.982Z,12.09
2016-11-23T02:59:43.646Z,12.1
2016-11-23T03:00:43.315Z,12.15
2016-11-23T03:01:43.567Z,12.1
2016-11-23T03:02:43.861Z,12.15
2016-11-23T03:03:42.935Z,12.17
2016-11-23T03:04:43.526Z,12.16
2016-11-23T03:05:43.285Z,12.12
2016-11-23T03:06:43.493Z,12.06
2016-11-23T03:07:43.763Z,11.98
2016-11-23T03:08:42.764Z,11.94
2016-11-23T03:09:43.462Z,11.89
2016-11-23T03:10:43.811Z,11.86
2016-11-23T03:11:43.832Z,11.87
2016-11-23T03:12:43.155Z,11.95
2016-11-23T03:13:43.361Z,11.84
2016-11-23T03:14:43.096Z,11.81
2016-11-23T03:15:43.343Z,11.98
2016-11-23T03:16:42.995Z,11.83
2016-11-23T03:17:42.955Z,11.87
2016-11-23T03:18:43.127Z,11.86
2016-11-23T03:19:42.994Z,11.89
2016-11-23T03:20:42.575Z,11.91
2016-11-23T03:21:43.195Z,11.9
2016-11-23T03:22:42.236Z,11.87
2016-11-23T03:23:42.908Z,11.9
2016-11-23T03:24:42.900Z,11.83
2016-11-23T03:25:42.708Z,11.87
2016-11-23T03:26:43.505Z,11.91
2016-11-23T03:27:42.850Z,11.95
2016-11-23T03:28:43.502Z,11.83
2016-11-23T03:29:43.044Z,11.73
2016-11-23T03:30:42.809Z,11.57
2016-11-23T03:31:42.878Z,11.57
2016-11-23T03:32:42.703Z,11.66
2016-11-23T03:33:43.263Z,11.69
2016-11-23T03:34:43.353Z,11.72
2016-11-23T03:35:43.336Z,11.69
2016-11-23T03:36:43.338Z,11.76
2016-11-23T03:37:42.690Z,11.83
2016-11-23T03:38:42.864Z,11.84
2016-11-23T03:39:42.872Z,11.94
2016-11-23T03:40:42.200Z,11.89
2016-11-23T03:41:42.088Z,11.9
2016-11-23T03:42:43.234Z,11.89
2016-11-23T03:43:42.774Z,11.84
2016-11-23T03:44:41.894Z,11.87
2016-11-23T03:45:42.594Z,11.81
2016-11-23T03:46:42.731Z,11.95
2016-11-23T03:47:42.691Z,11.87
2016-11-23T03:48:43.114Z,11.98
2016-11-23T03:49:41.615Z,11.94
2016-11-23T03:50:42.332Z,11.87
2016-11-23T03:51:41.893Z,11.89
2016-11-23T03:52:41.654Z,11.91
2016-11-23T03:53:42.362Z,11.94
2016-11-23T03:54:41.836Z,11.95
2016-11-23T03:55:42.945Z,12.05
2016-11-23T03:56:42.535Z,11.89
2016-11-23T03:57:42.934Z,11.94
2016-11-23T03:58:42.893Z,11.94
2016-11-23T03:59:41.511Z,11.95
2016-11-23T04:00:42.205Z,11.94
2016-11-23T04:01:42.443Z,11.87
2016-11-23T04:02:42.199Z,11.89
2016-11-23T04:03:41.664Z,11.99
2016-11-23T04:04:41.398Z,11.99
2016-11-23T04:05:42.361Z,11.84
2016-11-23T04:06:42.096Z,11.91
2016-11-23T04:07:42.089Z,11.95
2016-11-23T04:08:41.403Z,11.97
2016-11-23T04:09:42.272Z,11.94
2016-11-23T04:10:42.787Z,11.91
2016-11-23T04:11:41.872Z,11.87
2016-11-23T04:12:41.914Z,11.94
2016-11-23T04:13:41.169Z,11.86
2016-11-23T04:14:41.937Z,11.97
2016-11-23T04:15:42.574Z,11.79
2016-11-23T04:16:42.625Z,11.87
2016-11-23T04:17:42.593Z,11.83
2016-11-23T04:18:42.534Z,11.83
2016-11-23T04:19:42.374Z,11.84
2016-11-23T04:20:41.216Z,11.87
2016-11-23T04:21:41.172Z,11.83
2016-11-23T04:22:41.804Z,11.81
2016-11-23T04:23:42.028Z,11.75
2016-11-23T04:24:41.685Z,11.83
2016-11-23T04:25:42.403Z,11.84
2016-11-23T04:26:41.313Z,11.76
2016-11-23T04:27:41.694Z,11.84
2016-11-23T04:28:41.193Z,11.83
2016-11-23T04:29:42.308Z,11.84
2016-11-23T04:30:42.311Z,11.86
2016-11-23T04:31:42.270Z,11.84
2016-11-23T04:32:41.608Z,11.72
2016-11-23T04:33:42.270Z,11.75
2016-11-23T04:34:41.558Z,11.54
2016-11-23T04:35:42.217Z,11.58
2016-11-23T04:36:42.168Z,11.56
2016-11-23T04:37:41.104Z,11.5
2016-11-23T04:38:41.744Z,11.5
2016-11-23T04:39:41.714Z,11.42
2016-11-23T04:40:41.485Z,11.51
2016-11-23T04:41:41.353Z,11.4
2016-11-23T04:42:41.662Z,11.48
2016-11-23T04:43:40.746Z,11.39
2016-11-23T04:44:42.080Z,11.53
2016-11-23T04:45:41.146Z,11.48
2016-11-23T04:46:40.949Z,11.4
2016-11-23T04:47:41.139Z,11.47
2016-11-23T04:48:40.560Z,11.39
2016-11-23T04:49:41.913Z,11.39
2016-11-23T04:50:40.848Z,11.32
2016-11-23T04:51:41.261Z,11.38
2016-11-23T04:52:41.306Z,11.48
2016-11-23T04:53:41.838Z,11.43
2016-11-23T04:54:40.778Z,11.39
2016-11-23T04:55:41.175Z,11.42
2016-11-23T04:56:41.065Z,11.46
2016-11-23T04:57:41.142Z,11.43
2016-11-23T04:58:40.681Z,11.38
2016-11-23T04:59:41.334Z,11.31
2016-11-23T05:00:41.320Z,11.38
2016-11-23T05:01:41.351Z,11.4
2016-11-23T05:02:40.393Z,11.47
2016-11-23T05:03:40.213Z,11.42
2016-11-23T05:04:41.074Z,11.39
2016-11-23T05:05:40.928Z,11.46
2016-11-23T05:06:41.211Z,11.4
2016-11-23T05:07:41.464Z,11.43
2016-11-23T05:08:41.593Z,11.5
2016-11-23T05:09:41.403Z,11.47
2016-11-23T05:10:40.984Z,11.48
2016-11-23T05:11:41.375Z,11.5
2016-11-23T05:12:40.868Z,11.46
2016-11-23T05:13:41.083Z,11.35
2016-11-23T05:14:40.705Z,11.11
2016-11-23T05:15:40.603Z,11.11
2016-11-23T05:16:41.418Z,11.06
2016-11-23T05:17:40.860Z,11.13
2016-11-23T05:18:40.323Z,11.03
2016-11-23T05:19:40.478Z,10.95
2016-11-23T05:20:40.303Z,10.98
2016-11-23T05:21:40.760Z,10.93
2016-11-23T05:22:40.894Z,11
2016-11-23T05:23:40.636Z,10.98
2016-11-23T05:24:40.848Z,11
2016-11-23T05:25:40.179Z,10.96
2016-11-23T05:26:40.491Z,11
2016-11-23T05:27:41.054Z,11.03
2016-11-23T05:28:40.527Z,11.11
2016-11-23T05:29:40.769Z,11.03
2016-11-23T05:30:40.720Z,11
2016-11-23T05:31:41.123Z,10.95
2016-11-23T05:32:41.025Z,11.14
2016-11-23T05:33:40.544Z,11.03
2016-11-23T05:34:40.668Z,11
2016-11-23T05:35:39.973Z,11
2016-11-23T05:36:40.610Z,10.87
2016-11-23T05:37:40.216Z,10.78
2016-11-23T05:38:40.187Z,10.81
2016-11-23T05:39:39.818Z,10.89
2016-11-23T05:40:40.781Z,11
2016-11-23T05:41:40.950Z,10.92
2016-11-23T05:42:40.169Z,11.02
2016-11-23T05:43:40.324Z,11.03
2016-11-23T05:44:40.042Z,11.03
2016-11-23T05:45:40.226Z,11.05
2016-11-23T05:46:40.412Z,11.05
2016-11-23T05:47:40.792Z,11.1
2016-11-23T05:48:39.718Z,11.03
2016-11-23T05:49:39.380Z,11.03
2016-11-23T05:50:40.087Z,11.06
2016-11-23T05:51:39.993Z,11.1
2016-11-23T05:52:40.713Z,11.08
2016-11-23T05:53:40.025Z,11.08
2016-11-23T05:54:40.654Z,11.06
2016-11-23T05:55:39.986Z,11.15
2016-11-23T05:56:39.548Z,11.14
2016-11-23T05:57:39.226Z,11.05
2016-11-23T05:58:40.444Z,11.15
2016-11-23T05:59:39.932Z,11.02
2016-11-23T06:00:40.556Z,11.11
2016-11-23T06:01:39.143Z,11.11
2016-11-23T06:02:40.152Z,11.05
2016-11-23T06:03:40.077Z,11.13
2016-11-23T06:04:39.842Z,11.03
2016-11-23T06:05:40.472Z,11.11
2016-11-23T06:06:39.792Z,11.1
2016-11-23T06:07:40.432Z,11.15
2016-11-23T06:08:39.568Z,11.08
2016-11-23T06:09:39.952Z,11.13
2016-11-23T06:10:40.392Z,11.1
2016-11-23T06:11:39.681Z,11.15
2016-11-23T06:12:39.025Z,11.1
2016-11-23T06:13:40.306Z,11.03
2016-11-23T06:14:40.295Z,11.05
2016-11-23T06:15:40.233Z,11.05
2016-11-23T06:16:40.236Z,11.06
2016-11-23T06:17:39.802Z,11.11
2016-11-23T06:18:39.537Z,11.1
2016-11-23T06:19:39.541Z,11.15
2016-11-23T06:20:39.501Z,11.14
2016-11-23T06:21:39.460Z,11.13
2016-11-23T06:22:39.461Z,11.1
2016-11-23T06:23:39.970Z,11.14
2016-11-23T06:24:40.070Z,11.11
2016-11-23T06:25:39.920Z,11.21
2016-11-23T06:26:39.217Z,11.14
2016-11-23T06:27:39.729Z,11.02
2016-11-23T06:28:39.451Z,11.11
2016-11-23T06:29:39.150Z,11.13
2016-11-23T06:30:39.570Z,11.1
2016-11-23T06:31:38.876Z,11.11
2016-11-23T06:32:39.508Z,11.06
2016-11-23T06:33:39.485Z,11.03
2016-11-23T06:34:39.884Z,11.13
2016-11-23T06:35:38.612Z,11.11
2016-11-23T06:36:39.124Z,11.08
2016-11-23T06:37:39.170Z,11.1
2016-11-23T06:38:38.657Z,11.11
2016-11-23T06:39:39.759Z,11.13
2016-11-23T06:40:39.150Z,11
2016-11-23T06:41:39.318Z,10.99
2016-11-23T06:42:38.651Z,11.08
2016-11-23T06:43:39.159Z,11.08
2016-11-23T06:44:38.630Z,11.03
2016-11-23T06:45:39.239Z,11.05
2016-11-23T06:46:39.230Z,11.13
2016-11-23T06:47:39.611Z,11.15
2016-11-23T06:48:38.804Z,11.08
2016-11-23T06:49:39.601Z,11.06
2016-11-23T06:50:38.793Z,11.08
2016-11-23T06:51:38.835Z,11.06
2016-11-23T06:52:39.538Z,11.17
2016-11-23T06:53:38.760Z,11.17
2016-11-23T06:54:38.680Z,11.15
2016-11-23T06:55:38.836Z,11.05
2016-11-23T06:56:38.396Z,11.13
2016-11-23T06:57:38.147Z,11.03
2016-11-23T06:58:38.769Z,11.1
2016-11-23T06:59:38.995Z,11.06
2016-11-23T07:00:38.331Z,11.17
2016-11-23T07:01:39.340Z,11.11
2016-11-23T07:02:38.695Z,11.1
2016-11-23T07:03:38.901Z,11.17
2016-11-23T07:04:39.300Z,11.18
2016-11-23T07:05:38.876Z,11.18
2016-11-23T07:06:38.838Z,11.17
2016-11-23T07:07:39.230Z,11.11
2016-11-23T07:08:38.799Z,11.17
2016-11-23T07:09:38.540Z,11.18
2016-11-23T07:10:38.758Z,11.18
2016-11-23T07:11:38.441Z,11.17
2016-11-23T07:12:39.167Z,11.06
2016-11-23T07:13:38.389Z,11.1
2016-11-23T07:14:39.118Z,11.13
2016-11-23T07:15:38.380Z,11.15
2016-11-23T07:16:37.607Z,11.11
2016-11-23T07:17:38.300Z,11.14
2016-11-23T07:18:37.707Z,11.06
2016-11-23T07:19:38.260Z,11.14
2016-11-23T07:20:37.679Z,11.06
2016-11-23T07:21:38.240Z,11.06
2016-11-23T07:22:38.194Z,11.03
2016-11-23T07:23:38.496Z,11.03
2016-11-23T07:24:38.149Z,10.99
2016-11-23T07:25:38.479Z,11.06
2016-11-23T07:26:38.116Z,11.11
2016-11-23T07:27:38.192Z,11.11
2016-11-23T07:28:38.082Z,11.11
2016-11-23T07:29:38.383Z,11.13
2016-11-23T07:30:38.381Z,11.14
2016-11-23T07:31:38.349Z,11.03
2016-11-23T07:32:38.115Z,11.08
2016-11-23T07:33:38.292Z,11.13
2016-11-23T07:34:37.317Z,11.13
2016-11-23T07:35:38.699Z,11.02
2016-11-23T07:36:38.246Z,10.99
2016-11-23T07:37:38.004Z,11.02
2016-11-23T07:38:37.980Z,11.05
2016-11-23T07:39:37.868Z,11.08
2016-11-23T07:40:37.781Z,10.99
2016-11-23T07:41:38.414Z,11.08
2016-11-23T07:42:37.714Z,11
2016-11-23T07:43:37.982Z,11.05
2016-11-23T07:44:38.085Z,11.08
2016-11-23T07:45:37.651Z,11.13
2016-11-23T07:46:38.069Z,11.03
2016-11-23T07:47:38.330Z,11.11
2016-11-23T07:48:37.602Z,11.1
2016-11-23T07:49:37.400Z,11.1
2016-11-23T07:50:38.407Z,11.24
2016-11-23T07:51:37.977Z,11.13
2016-11-23T07:52:36.872Z,11.21
2016-11-23T07:53:37.901Z,11.24
2016-11-23T07:54:38.312Z,11.23
2016-11-23T07:55:37.545Z,11.21
2016-11-23T07:56:37.617Z,11.18
2016-11-23T07:57:36.957Z,11.23
2016-11-23T07:58:38.229Z,11.13
2016-11-23T07:59:37.066Z,11.18
2016-11-23T08:00:37.455Z,11.24
2016-11-23T08:01:37.424Z,11.28
2016-11-23T08:02:37.515Z,11.24
2016-11-23T08:03:37.401Z,11.18
2016-11-23T08:04:36.667Z,11.13
2016-11-23T08:05:37.691Z,11.18
2016-11-23T08:06:38.067Z,11.11
2016-11-23T08:07:37.355Z,11.18
2016-11-23T08:08:36.958Z,11.2
2016-11-23T08:09:37.203Z,11.18
2016-11-23T08:10:37.277Z,11.1
2016-11-23T08:11:37.427Z,11.1
2016-11-23T08:12:36.937Z,11.1
2016-11-23T08:13:37.516Z,11.14
2016-11-23T08:14:36.854Z,11.14
2016-11-23T08:15:37.185Z,11.15
2016-11-23T08:16:37.919Z,11.15
2016-11-23T08:17:37.038Z,11.2
2016-11-23T08:18:36.691Z,11.29
2016-11-23T08:19:37.822Z,11.28
2016-11-23T08:20:37.790Z,11.26
2016-11-23T08:21:37.241Z,11.39
2016-11-23T08:22:37.107Z,11.29
2016-11-23T08:23:37.028Z,11.33
2016-11-23T08:24:37.006Z,11.32
2016-11-23T08:25:37.168Z,11.38
2016-11-23T08:26:37.020Z,11.42
2016-11-23T08:27:37.272Z,11.39
2016-11-23T08:28:37.028Z,11.46
2016-11-23T08:29:37.626Z,11.43
2016-11-23T08:30:37.601Z,11.42
2016-11-23T08:31:37.586Z,11.47
2016-11-23T08:32:36.917Z,11.46
2016-11-23T08:33:36.907Z,11.5
2016-11-23T08:34:37.533Z,11.43
2016-11-23T08:35:37.483Z,11.6
2016-11-23T08:36:37.062Z,11.51
2016-11-23T08:37:36.756Z,11.48
2016-11-23T08:38:37.054Z,11.48
2016-11-23T08:39:36.649Z,11.5
2016-11-23T08:40:36.998Z,11.48
2016-11-23T08:41:37.397Z,11.6
2016-11-23T08:42:37.357Z,11.53
2016-11-23T08:43:36.228Z,11.56
2016-11-23T08:44:36.707Z,11.57
2016-11-23T08:45:36.924Z,11.53
2016-11-23T08:46:37.317Z,11.6
2016-11-23T08:47:36.886Z,11.6
2016-11-23T08:48:36.123Z,11.6
2016-11-23T08:49:37.247Z,11.6
2016-11-23T08:50:37.095Z,11.64
2016-11-23T08:51:36.803Z,11.6
2016-11-23T08:52:36.139Z,11.61
2016-11-23T08:53:36.779Z,11.57
2016-11-23T08:54:37.012Z,11.75
2016-11-23T08:55:37.096Z,11.75
2016-11-23T08:56:37.130Z,11.76
2016-11-23T08:57:36.459Z,11.71
2016-11-23T08:58:36.658Z,11.75
2016-11-23T08:59:37.043Z,11.66
2016-11-23T09:00:36.389Z,11.58
2016-11-23T09:01:37.003Z,11.58
2016-11-23T09:02:35.924Z,11.61
2016-11-23T09:03:36.197Z,11.61
2016-11-23T09:04:36.325Z,11.68
2016-11-23T09:05:35.627Z,11.84
2016-11-23T09:06:36.818Z,11.72
2016-11-23T09:07:36.256Z,11.81
2016-11-23T09:08:35.721Z,11.83
2016-11-23T09:09:36.208Z,11.83
2016-11-23T09:10:36.431Z,11.83
2016-11-23T09:11:35.680Z,11.94
2016-11-23T09:12:35.509Z,11.81
2016-11-23T09:13:36.019Z,11.81
2016-11-23T09:14:36.340Z,11.89
2016-11-23T09:15:36.354Z,11.76
2016-11-23T09:16:36.086Z,11.83
2016-11-23T09:17:36.696Z,11.84
2016-11-23T09:18:36.675Z,11.84
2016-11-23T09:19:36.679Z,11.9
2016-11-23T09:20:35.271Z,11.98
2016-11-23T09:21:35.300Z,11.95
2016-11-23T09:22:35.464Z,11.84
2016-11-23T09:23:35.770Z,11.9
2016-11-23T09:24:35.185Z,11.95
2016-11-23T09:25:35.846Z,11.91
2016-11-23T09:26:35.863Z,12.03
2016-11-23T09:27:36.107Z,12.05
2016-11-23T09:28:35.949Z,11.98
2016-11-23T09:29:35.189Z,12.05
2016-11-23T09:30:35.641Z,12.12
2016-11-23T09:31:36.425Z,12.15
2016-11-23T09:32:35.041Z,12.21
2016-11-23T09:33:35.026Z,12.2
2016-11-23T09:34:36.427Z,12.23
2016-11-23T09:35:34.990Z,12.21
2016-11-23T09:36:35.679Z,12.15
2016-11-23T09:37:35.272Z,12.17
2016-11-23T09:38:35.901Z,12.17
2016-11-23T09:39:35.224Z,12.28
2016-11-23T09:40:35.872Z,12.31
2016-11-23T09:41:35.894Z,12.3
2016-11-23T09:42:35.095Z,12.31
2016-11-23T09:43:35.146Z,12.28
2016-11-23T09:44:35.471Z,12.4
2016-11-23T09:45:35.170Z,12.4
2016-11-23T09:46:35.738Z,12.37
2016-11-23T09:47:35.482Z,12.48
2016-11-23T09:48:35.386Z,12.5
2016-11-23T09:49:35.711Z,12.49
2016-11-23T09:50:35.031Z,12.48
2016-11-23T09:51:35.481Z,12.5
2016-11-23T09:52:35.412Z,12.57
2016-11-23T09:53:35.612Z,12.63
2016-11-23T09:54:36.018Z,12.61
2016-11-23T09:55:35.261Z,12.61
2016-11-23T09:56:35.582Z,12.6
2016-11-23T09:57:35.233Z,12.6
2016-11-23T09:58:35.524Z,12.53
2016-11-23T09:59:35.933Z,12.37
2016-11-23T10:00:35.262Z,12.46
2016-11-23T10:01:35.292Z,12.48
2016-11-23T10:02:34.403Z,12.6
2016-11-23T10:03:35.843Z,12.74
2016-11-23T10:04:35.854Z,12.61
2016-11-23T10:05:35.834Z,12.55
2016-11-23T10:06:34.972Z,12.53
2016-11-23T10:07:35.360Z,12.73
2016-11-23T10:08:35.779Z,12.68
2016-11-23T10:09:35.103Z,12.85
2016-11-23T10:10:35.312Z,12.88
2016-11-23T10:11:35.285Z,12.86
2016-11-23T10:12:34.954Z,12.94
2016-11-23T10:13:34.842Z,12.94
2016-11-23T10:14:35.253Z,12.96
2016-11-23T10:15:35.230Z,13
2016-11-23T10:16:34.553Z,12.98
2016-11-23T10:17:34.935Z,13.04
2016-11-23T10:18:34.194Z,13.06
2016-11-23T10:19:34.935Z,13.07
2016-11-23T10:20:35.140Z,13.03
2016-11-23T10:21:35.118Z,13.1
2016-11-23T10:22:35.523Z,13.23
2016-11-23T10:23:35.064Z,13.25
2016-11-23T10:24:34.423Z,13.21
2016-11-23T10:25:34.724Z,13.38
2016-11-23T10:26:35.439Z,13.47
2016-11-23T10:27:34.365Z,13.53
2016-11-23T10:28:34.672Z,13.56
2016-11-23T10:29:34.231Z,13.74
2016-11-23T10:30:34.716Z,13.77
2016-11-23T10:31:34.273Z,13.81
2016-11-23T10:32:35.317Z,13.95
2016-11-23T10:33:34.750Z,14.11
2016-11-23T10:34:35.287Z,14.36
2016-11-23T10:35:34.554Z,14.54
2016-11-23T10:36:34.550Z,14.77
2016-11-23T10:37:34.627Z,15
2016-11-23T10:38:34.574Z,15.07
2016-11-23T10:39:34.669Z,15.2
2016-11-23T10:40:33.905Z,15.31
2016-11-23T10:41:34.474Z,15.43
2016-11-23T10:42:34.445Z,15.42
2016-11-23T10:43:34.068Z,15.58
2016-11-23T10:44:34.405Z,15.6
2016-11-23T10:45:34.577Z,15.47
2016-11-23T10:46:35.104Z,15.43
2016-11-23T10:47:34.682Z,15.37
2016-11-23T10:48:34.317Z,15.25
2016-11-23T10:49:34.412Z,15.24
2016-11-23T10:50:34.628Z,15.25
2016-11-23T10:51:34.628Z,15.32
2016-11-23T10:52:34.575Z,15.54
2016-11-23T10:53:34.257Z,15.8
2016-11-23T10:54:34.545Z,16.05
2016-11-23T10:55:34.419Z,16.46
2016-11-23T10:56:34.123Z,16.71
2016-11-23T10:57:34.315Z,16.74
2016-11-23T10:58:34.515Z,16.76
2016-11-23T10:59:34.905Z,16.68
2016-11-23T11:00:34.457Z,16.58
2016-11-23T11:01:34.420Z,16.48
2016-11-23T11:02:34.868Z,16.58
2016-11-23T11:03:34.110Z,16.69
2016-11-23T11:04:34.166Z,16.6
2016-11-23T11:05:34.666Z,16.69
2016-11-23T11:06:33.957Z,16.74
2016-11-23T11:07:34.045Z,16.63
2016-11-23T11:08:34.357Z,16.34
2016-11-23T11:09:34.749Z,15.86
2016-11-23T11:10:34.328Z,15.65
2016-11-23T11:11:33.920Z,15.79
2016-11-23T11:12:33.836Z,15.69
2016-11-23T11:13:34.728Z,15.77
2016-11-23T11:14:33.949Z,15.82
2016-11-23T11:15:34.618Z,16.17
2016-11-23T11:16:33.834Z,16.35
2016-11-23T11:17:33.962Z,16.48
2016-11-23T11:18:34.619Z,16.34
2016-11-23T11:19:33.835Z,16.35
2016-11-23T11:20:33.532Z,16.58
2016-11-23T11:21:34.209Z,16.76
2016-11-23T11:22:33.836Z,16.83
2016-11-23T11:23:34.497Z,16.83
2016-11-23T11:24:34.151Z,16.82
2016-11-23T11:25:34.507Z,16.91
2016-11-23T11:26:33.515Z,16.93
2016-11-23T11:27:33.118Z,16.91
2016-11-23T11:28:33.300Z,16.97
2016-11-23T11:29:34.465Z,17.14
2016-11-23T11:30:33.907Z,17.15
2016-11-23T11:31:33.830Z,17.22
2016-11-23T11:32:34.407Z,17.12
2016-11-23T11:33:33.759Z,17.06
2016-11-23T11:34:33.251Z,16.93
2016-11-23T11:35:33.748Z,16.93
2016-11-23T11:36:33.957Z,16.78
2016-11-23T11:37:32.883Z,16.85
2016-11-23T11:38:33.935Z,17.06
2016-11-23T11:39:33.467Z,17.15
2016-11-23T11:40:33.178Z,17.39
2016-11-23T11:41:33.561Z,17.27
2016-11-23T11:42:34.286Z,17.15
2016-11-23T11:43:33.636Z,16.94
2016-11-23T11:44:33.847Z,16.63
2016-11-23T11:45:34.248Z,16.5
2016-11-23T11:46:33.160Z,16.28
2016-11-23T11:47:33.347Z,16.24
2016-11-23T11:48:33.449Z,16.1
2016-11-23T11:49:33.771Z,16.08
2016-11-23T11:50:33.431Z,16.04
2016-11-23T11:51:32.871Z,16.08
2016-11-23T11:52:33.081Z,16
2016-11-23T11:53:32.986Z,15.75
2016-11-23T11:54:34.136Z,15.4
2016-11-23T11:55:33.361Z,15.21
2016-11-23T11:56:33.024Z,14.98
2016-11-23T11:57:34.107Z,14.85
2016-11-23T11:58:32.907Z,14.73
2016-11-23T11:59:33.633Z,14.68
2016-11-23T12:00:33.208Z,14.75
2016-11-23T12:01:32.865Z,14.85
2016-11-23T12:02:33.978Z,14.94
2016-11-23T12:03:33.316Z,15.06
2016-11-23T12:04:33.318Z,15.02
2016-11-23T12:05:33.836Z,14.96
2016-11-23T12:06:33.899Z,14.92
2016-11-23T12:07:32.615Z,14.96
2016-11-23T12:08:32.758Z,14.82
2016-11-23T12:09:33.467Z,14.82
2016-11-23T12:10:32.783Z,15.21
2016-11-23T12:11:33.136Z,15.17
2016-11-23T12:12:33.674Z,15.25
2016-11-23T12:13:32.755Z,15.32
2016-11-23T12:14:32.734Z,15.43
2016-11-23T12:15:32.936Z,15.43
2016-11-23T12:16:32.956Z,15.5
2016-11-23T12:17:33.316Z,15.47
2016-11-23T12:18:33.307Z,15.47
2016-11-23T12:19:33.059Z,15.46
2016-11-23T12:20:33.681Z,15.44
2016-11-23T12:21:32.954Z,15.37
2016-11-23T12:22:33.667Z,15.28
2016-11-23T12:23:32.267Z,15.2
2016-11-23T12:24:33.230Z,15.13
2016-11-23T12:25:33.240Z,15.09
2016-11-23T12:26:32.203Z,14.94
2016-11-23T12:27:32.915Z,14.8
2016-11-23T12:28:33.028Z,14.88
2016-11-23T12:29:32.900Z,14.88
2016-11-23T12:30:32.893Z,14.91
2016-11-23T12:31:32.212Z,14.8
2016-11-23T12:32:33.508Z,14.62
2016-11-23T12:33:33.067Z,14.58
2016-11-23T12:34:32.758Z,14.48
2016-11-23T12:35:33.022Z,14.51
2016-11-23T12:36:32.047Z,14.5
2016-11-23T12:37:32.777Z,14.51
2016-11-23T12:38:32.838Z,14.62
2016-11-23T12:39:33.406Z,14.68
2016-11-23T12:40:32.298Z,14.69
2016-11-23T12:41:32.789Z,14.68
2016-11-23T12:42:32.665Z,14.73
2016-11-23T12:43:32.016Z,14.85
2016-11-23T12:44:32.221Z,14.77
2016-11-23T12:45:33.274Z,14.75
2016-11-23T12:46:32.843Z,14.8
2016-11-23T12:47:32.602Z,14.77
2016-11-23T12:48:32.593Z,14.79
2016-11-23T12:49:31.834Z,14.84
2016-11-23T12:50:32.522Z,14.69
2016-11-23T12:51:32.446Z,14.62
2016-11-23T12:52:32.747Z,14.58
2016-11-23T12:53:31.843Z,14.68
2016-11-23T12:54:32.398Z,14.62
2016-11-23T12:55:32.484Z,14.65
2016-11-23T12:56:32.299Z,14.6